Time;durP1;ratioP1;P1;durP2;ratioP2;P2;SDS_P1;SDS_P2;PMS_P1;PMS_P2;Temp;Humidity;BMP_temperature;BMP_pressure;BME280_temperature;BME280_humidity;BME280_pressure;Samples;Min_cycle;Max_cycle;Signal;HPM_P1;HPM_P2
2022/02/22 00:01:57;;;;;;;19.38;3.40;;;;;;;;;;5058259;28;20041;-69
2022/02/22 00:04:26;;;;;;;12.40;3.53;;;;;;;;;;5064458;28;20017;-67
2022/02/22 00:06:52;;;;;;;17.80;3.50;;;;;;;;;;5056035;28;20040;-68
2022/02/22 00:09:18;;;;;;;19.73;3.60;;;;;;;;;;5056288;28;20084;-69
2022/02/22 00:11:44;;;;;;;20.58;3.40;;;;;;;;;;5055726;28;20041;-68
2022/02/22 00:14:12;;;;;;;14.50;3.10;;;;;;;;;;5056218;28;20025;-65
2022/02/22 00:16:38;;;;;;;14.27;3.20;;;;;;;;;;5056176;28;20472;-69
2022/02/22 00:19:03;;;;;;;13.00;3.30;;;;;;;;;;5038500;28;20043;-67
2022/02/22 00:21:29;;;;;;;13.70;3.42;;;;;;;;;;5055803;28;20053;-69
2022/02/22 00:23:55;;;;;;;11.15;2.90;;;;;;;;;;5038065;28;20021;-69
2022/02/22 00:26:21;;;;;;;16.92;3.53;;;;;;;;;;5056135;28;20029;-68
2022/02/22 00:28:47;;;;;;;13.25;3.50;;;;;;;;;;5037847;28;20057;-69
2022/02/22 00:31:13;;;;;;;16.08;3.08;;;;;;;;;;5055549;28;20078;-70
2022/02/22 00:33:39;;;;;;;15.52;3.65;;;;;;;;;;5065375;28;20032;-66
2022/02/22 00:36:05;;;;;;;15.13;3.10;;;;;;;;;;5075855;28;20017;-68
2022/02/22 00:38:31;;;;;;;13.23;2.90;;;;;;;;;;5075671;28;20029;-68
2022/02/22 00:40:57;;;;;;;11.50;3.25;;;;;;;;;;5075291;28;20159;-70
2022/02/22 00:43:23;;;;;;;16.15;3.90;;;;;;;;;;5075687;28;20028;-67
2022/02/22 00:45:49;;;;;;;14.15;3.70;;;;;;;;;;5075366;28;20028;-69
2022/02/22 00:48:15;;;;;;;12.52;2.97;;;;;;;;;;5056715;28;20029;-65
2022/02/22 00:50:41;;;;;;;12.40;3.10;;;;;;;;;;5054983;28;20047;-66
2022/02/22 00:53:07;;;;;;;12.07;2.58;;;;;;;;;;5055033;28;20049;-66
2022/02/22 00:55:33;;;;;;;13.75;3.38;;;;;;;;;;5037082;28;20429;-66
2022/02/22 00:57:59;;;;;;;14.05;2.85;;;;;;;;;;5037023;28;20029;-67
2022/02/22 01:00:25;;;;;;;11.50;3.13;;;;;;;;;;5054832;28;20026;-67
2022/02/22 01:02:52;;;;;;;13.23;2.90;;;;;;;;;;5057346;28;20039;-68
2022/02/22 01:05:18;;;;;;;11.27;2.72;;;;;;;;;;5066477;28;20051;-68
2022/02/22 01:07:44;;;;;;;11.20;2.97;;;;;;;;;;5074437;28;20067;-66
2022/02/22 01:10:10;;;;;;;14.45;2.80;;;;;;;;;;5073888;28;20021;-66
2022/02/22 01:12:36;;;;;;;8.95;2.90;;;;;;;;;;5056209;28;20128;-66
2022/02/22 01:15:03;;;;;;;11.75;3.35;;;;;;;;;;5071226;28;20092;-65
2022/02/22 01:17:29;;;;;;;10.63;3.03;;;;;;;;;;5053793;28;20040;-65
2022/02/22 01:19:55;;;;;;;10.85;2.78;;;;;;;;;;5070704;28;20099;-68
2022/02/22 01:22:21;;;;;;;12.27;2.88;;;;;;;;;;5054110;28;20552;-66
2022/02/22 01:24:47;;;;;;;9.82;2.45;;;;;;;;;;5054492;28;20029;-68
2022/02/22 01:27:13;;;;;;;10.52;2.67;;;;;;;;;;5054366;28;20095;-68
2022/02/22 01:29:39;;;;;;;10.00;2.70;;;;;;;;;;5054118;28;20036;-67
2022/02/22 01:32:05;;;;;;;10.20;2.65;;;;;;;;;;5053860;28;20082;-66
2022/02/22 01:34:31;;;;;;;10.23;2.63;;;;;;;;;;5019634;28;20024;-67
2022/02/22 01:36:57;;;;;;;8.50;2.30;;;;;;;;;;5062164;28;20021;-69
2022/02/22 01:39:23;;;;;;;9.25;2.67;;;;;;;;;;5020098;28;20104;-68
2022/02/22 01:41:49;;;;;;;5.93;2.35;;;;;;;;;;5036152;28;20419;-67
2022/02/22 01:44:15;;;;;;;10.30;2.50;;;;;;;;;;5053970;28;20064;-68
2022/02/22 01:46:41;;;;;;;10.30;2.65;;;;;;;;;;5059413;28;20732;-69
2022/02/22 01:49:07;;;;;;;11.35;2.40;;;;;;;;;;5074080;28;20103;-68
2022/02/22 01:51:33;;;;;;;9.27;2.60;;;;;;;;;;5073927;28;20044;-69
2022/02/22 01:53:59;;;;;;;11.63;2.67;;;;;;;;;;5056076;28;20059;-70
2022/02/22 01:56:25;;;;;;;9.30;2.38;;;;;;;;;;5073782;28;20052;-69
2022/02/22 01:58:51;;;;;;;9.68;2.42;;;;;;;;;;5073569;28;20083;-68
2022/02/22 02:01:18;;;;;;;11.52;2.75;;;;;;;;;;5055930;28;20042;-68
2022/02/22 02:03:45;;;;;;;14.27;3.63;;;;;;;;;;5055720;28;20036;-68
2022/02/22 02:06:11;;;;;;;11.85;2.83;;;;;;;;;;5073796;28;20457;-68
2022/02/22 02:08:37;;;;;;;12.23;2.72;;;;;;;;;;5071483;28;20020;-66
2022/02/22 02:11:10;;;;;;;12.00;2.78;;;;;;;;;;5040285;28;20574;-69
2022/02/22 02:13:36;;;;;;;7.90;2.03;;;;;;;;;;5073206;28;20479;-68
2022/02/22 02:16:03;;;;;;;14.93;2.97;;;;;;;;;;5073832;28;20353;-69
2022/02/22 02:18:29;;;;;;;9.30;2.58;;;;;;;;;;5055954;28;20055;-69
2022/02/22 02:20:55;;;;;;;9.63;2.45;;;;;;;;;;5072883;28;20049;-68
2022/02/22 02:23:21;;;;;;;9.80;2.58;;;;;;;;;;5073076;28;20028;-69
2022/02/22 02:25:47;;;;;;;10.10;2.67;;;;;;;;;;5055630;28;20036;-67
2022/02/22 02:28:13;;;;;;;12.98;3.28;;;;;;;;;;5072966;28;20020;-70
2022/02/22 02:30:39;;;;;;;11.10;2.95;;;;;;;;;;5073357;28;20052;-70
2022/02/22 02:33:05;;;;;;;16.25;3.17;;;;;;;;;;5073598;28;20118;-71
2022/02/22 02:35:32;;;;;;;8.40;2.45;;;;;;;;;;5055327;28;20023;-68
2022/02/22 02:37:58;;;;;;;9.38;2.70;;;;;;;;;;5072122;28;20445;-68
2022/02/22 02:40:24;;;;;;;10.68;2.58;;;;;;;;;;5065103;28;20083;-67
2022/02/22 02:42:50;;;;;;;17.27;3.20;;;;;;;;;;5052412;28;20044;-67
2022/02/22 02:45:16;;;;;;;16.25;2.20;;;;;;;;;;5035364;28;20025;-66
2022/02/22 02:47:42;;;;;;;12.48;2.55;;;;;;;;;;5049157;28;20029;-72
2022/02/22 02:50:10;;;;;;;19.15;2.70;;;;;;;;;;5073529;28;20035;-70
2022/02/22 02:52:36;;;;;;;16.40;2.83;;;;;;;;;;5073348;28;20025;-68
2022/02/22 02:55:02;;;;;;;10.43;2.88;;;;;;;;;;5067506;28;20029;-74
2022/02/22 02:57:28;;;;;;;13.57;2.47;;;;;;;;;;5069280;28;20099;-66
2022/02/22 02:59:54;;;;;;;11.25;2.67;;;;;;;;;;5072462;28;20044;-72
2022/02/22 03:02:21;;;;;;;10.85;2.40;;;;;;;;;;5072570;28;20032;-72
2022/02/22 03:04:47;;;;;;;12.15;2.67;;;;;;;;;;5072689;28;20017;-72
2022/02/22 03:07:13;;;;;;;11.10;2.05;;;;;;;;;;5054993;28;20395;-68
2022/02/22 03:09:39;;;;;;;11.07;2.28;;;;;;;;;;5054739;28;20027;-67
2022/02/22 03:12:05;;;;;;;9.73;2.17;;;;;;;;;;5040431;28;20032;-72
2022/02/22 03:14:31;;;;;;;15.20;2.40;;;;;;;;;;5072370;28;20052;-69
2022/02/22 03:16:57;;;;;;;10.20;2.45;;;;;;;;;;5053331;28;20413;-65
2022/02/22 03:19:23;;;;;;;10.00;2.53;;;;;;;;;;5052655;28;20021;-67
2022/02/22 03:21:49;;;;;;;9.93;2.38;;;;;;;;;;5034301;28;20141;-70
2022/02/22 03:24:15;;;;;;;10.88;2.72;;;;;;;;;;5052700;28;20033;-71
2022/02/22 03:26:41;;;;;;;11.45;2.40;;;;;;;;;;5053817;28;20400;-67
2022/02/22 03:29:07;;;;;;;16.30;3.35;;;;;;;;;;5052667;28;20071;-66
2022/02/22 03:31:33;;;;;;;10.27;2.30;;;;;;;;;;5052238;28;20036;-68
2022/02/22 03:33:59;;;;;;;9.38;2.55;;;;;;;;;;5052486;28;20488;-69
2022/02/22 03:36:25;;;;;;;11.40;1.95;;;;;;;;;;5052562;28;20650;-71
2022/02/22 03:38:51;;;;;;;11.75;2.45;;;;;;;;;;5034534;28;20469;-73
2022/02/22 03:41:17;;;;;;;11.10;2.22;;;;;;;;;;5052478;28;20084;-74
2022/02/22 03:43:44;;;;;;;9.10;2.40;;;;;;;;;;5054710;28;20025;-69
2022/02/22 03:46:11;;;;;;;12.02;2.38;;;;;;;;;;5072968;28;20479;-74
2022/02/22 03:48:37;;;;;;;6.40;1.98;;;;;;;;;;5072490;28;20025;-74
2022/02/22 03:51:03;;;;;;;10.43;2.30;;;;;;;;;;5072515;28;20413;-66
2022/02/22 03:53:29;;;;;;;13.85;2.30;;;;;;;;;;5072681;28;20032;-74
2022/02/22 03:55:55;;;;;;;10.52;2.50;;;;;;;;;;5073053;28;20102;-69
2022/02/22 03:58:21;;;;;;;11.68;2.25;;;;;;;;;;5073098;28;20060;-70
2022/02/22 04:00:47;;;;;;;7.60;1.73;;;;;;;;;;5073099;28;20048;-71
2022/02/22 04:03:13;;;;;;;7.75;2.30;;;;;;;;;;5073313;28;20043;-73
2022/02/22 04:05:39;;;;;;;4.40;1.83;;;;;;;;;;5072712;28;20024;-70
2022/02/22 04:08:05;;;;;;;10.50;2.50;;;;;;;;;;5072903;28;20381;-69
2022/02/22 04:10:31;;;;;;;4.55;2.00;;;;;;;;;;5073081;28;20020;-67
2022/02/22 04:12:57;;;;;;;8.95;2.03;;;;;;;;;;5072484;28;20111;-71
2022/02/22 04:15:23;;;;;;;9.80;2.05;;;;;;;;;;5072650;28;20103;-70
2022/02/22 04:17:49;;;;;;;10.25;2.10;;;;;;;;;;5069741;28;20029;-70
2022/02/22 04:20:15;;;;;;;6.47;1.70;;;;;;;;;;5059384;28;20071;-70
2022/02/22 04:22:41;;;;;;;6.38;1.80;;;;;;;;;;5072980;28;20112;-70
2022/02/22 04:25:07;;;;;;;8.82;2.10;;;;;;;;;;5073186;28;20091;-69
2022/02/22 04:27:33;;;;;;;9.23;1.70;;;;;;;;;;5072797;28;20070;-71
2022/02/22 04:29:59;;;;;;;8.90;2.30;;;;;;;;;;5054912;28;20021;-69
2022/02/22 04:32:25;;;;;;;7.00;1.67;;;;;;;;;;5072528;28;20025;-70
2022/02/22 04:34:51;;;;;;;9.32;1.98;;;;;;;;;;5060715;28;20097;-70
2022/02/22 04:37:18;;;;;;;8.80;2.05;;;;;;;;;;5034310;28;20407;-66
2022/02/22 04:39:45;;;;;;;5.93;1.70;;;;;;;;;;5052590;28;20029;-69
2022/02/22 04:42:12;;;;;;;9.00;1.65;;;;;;;;;;5052424;28;20032;-70
2022/02/22 04:44:39;;;;;;;12.85;2.05;;;;;;;;;;5035843;28;20028;-68
2022/02/22 04:47:05;;;;;;;13.77;2.33;;;;;;;;;;5057283;28;20037;-65
2022/02/22 04:49:31;;;;;;;8.98;1.92;;;;;;;;;;5072880;28;20066;-68
2022/02/22 04:51:57;;;;;;;7.90;2.10;;;;;;;;;;5075575;28;20024;-65
2022/02/22 04:54:23;;;;;;;5.78;1.38;;;;;;;;;;5075499;28;20411;-65
2022/02/22 04:56:49;;;;;;;7.25;1.90;;;;;;;;;;5076167;28;20032;-67
2022/02/22 04:59:15;;;;;;;5.28;1.92;;;;;;;;;;5075731;28;20021;-69
2022/02/22 05:01:41;;;;;;;8.48;2.00;;;;;;;;;;5076077;28;20493;-68
2022/02/22 05:04:07;;;;;;;10.82;2.38;;;;;;;;;;5076077;28;20035;-64
2022/02/22 05:06:33;;;;;;;11.80;2.17;;;;;;;;;;5075513;28;20103;-66
2022/02/22 05:08:59;;;;;;;7.97;2.03;;;;;;;;;;5076161;28;20104;-66
2022/02/22 05:11:25;;;;;;;5.15;1.83;;;;;;;;;;5075632;28;20056;-69
2022/02/22 05:13:51;;;;;;;7.85;2.30;;;;;;;;;;5075006;28;20379;-67
2022/02/22 05:16:17;;;;;;;9.88;2.10;;;;;;;;;;5075221;28;20035;-63
2022/02/22 05:18:43;;;;;;;8.75;2.13;;;;;;;;;;5065454;28;20064;-68
2022/02/22 05:21:09;;;;;;;10.43;2.30;;;;;;;;;;5075032;28;20071;-68
2022/02/22 05:23:35;;;;;;;11.00;1.90;;;;;;;;;;5057616;28;20463;-68
2022/02/22 05:26:02;;;;;;;14.07;1.98;;;;;;;;;;5066442;28;20036;-66
2022/02/22 05:28:29;;;;;;;11.07;1.60;;;;;;;;;;5075190;28;20479;-66
2022/02/22 05:30:55;;;;;;;10.57;1.75;;;;;;;;;;5057011;28;20025;-72
2022/02/22 05:33:21;;;;;;;5.75;1.48;;;;;;;;;;5051690;28;20033;-71
2022/02/22 05:35:48;;;;;;;7.93;1.77;;;;;;;;;;5045784;28;20024;-69
2022/02/22 05:38:14;;;;;;;9.43;2.15;;;;;;;;;;5044426;28;20017;-66
2022/02/22 05:40:40;;;;;;;7.07;1.95;;;;;;;;;;5066933;28;20121;-70
2022/02/22 05:43:06;;;;;;;15.00;1.83;;;;;;;;;;5063977;28;20028;-67
2022/02/22 05:45:33;;;;;;;6.53;2.10;;;;;;;;;;5069463;28;20102;-70
2022/02/22 05:47:59;;;;;;;21.20;2.30;;;;;;;;;;5045257;28;20032;-71
2022/02/22 05:50:25;;;;;;;5.88;1.55;;;;;;;;;;5069719;28;20025;-68
2022/02/22 05:52:53;;;;;;;12.60;1.75;;;;;;;;;;5066285;28;20047;-69
2022/02/22 05:55:19;;;;;;;7.13;1.83;;;;;;;;;;5061237;28;20057;-68
2022/02/22 05:57:45;;;;;;;4.22;1.48;;;;;;;;;;5074779;28;20025;-67
2022/02/22 06:00:11;;;;;;;11.45;2.63;;;;;;;;;;5074622;28;20037;-65
2022/02/22 06:02:38;;;;;;;15.63;2.15;;;;;;;;;;5069045;28;20032;-70
2022/02/22 06:05:04;;;;;;;5.70;1.60;;;;;;;;;;5058658;28;20033;-63
2022/02/22 06:07:30;;;;;;;5.82;1.70;;;;;;;;;;5058193;28;20036;-70
2022/02/22 06:09:56;;;;;;;4.40;1.40;;;;;;;;;;5069019;28;20043;-71
2022/02/22 06:12:22;;;;;;;33.08;2.33;;;;;;;;;;5073547;28;20028;-74
2022/02/22 06:14:48;;;;;;;14.80;2.15;;;;;;;;;;5060394;28;20028;-74
2022/02/22 06:17:14;;;;;;;42.05;3.03;;;;;;;;;;5073016;28;20024;-68
2022/02/22 06:19:40;;;;;;;39.03;2.75;;;;;;;;;;5060509;28;20020;-72
2022/02/22 06:22:06;;;;;;;25.30;2.25;;;;;;;;;;5053554;28;20056;-72
2022/02/22 06:24:32;;;;;;;29.10;2.88;;;;;;;;;;5044087;28;20095;-71
2022/02/22 06:26:58;;;;;;;15.40;2.25;;;;;;;;;;5067632;28;20071;-66
2022/02/22 06:29:24;;;;;;;42.47;2.67;;;;;;;;;;5073011;28;20032;-71
2022/02/22 06:31:51;;;;;;;28.20;2.80;;;;;;;;;;5055504;28;20103;-72
2022/02/22 06:34:17;;;;;;;19.73;2.80;;;;;;;;;;5073841;28;20494;-73
2022/02/22 06:36:45;;;;;;;23.13;2.58;;;;;;;;;;5066528;28;20066;-75
2022/02/22 06:39:11;;;;;;;16.65;2.08;;;;;;;;;;5057401;28;20032;-71
2022/02/22 06:41:37;;;;;;;17.50;2.58;;;;;;;;;;5055781;28;20495;-68
2022/02/22 06:44:05;;;;;;;13.88;2.38;;;;;;;;;;5056219;28;20078;-70
2022/02/22 06:46:31;;;;;;;22.08;2.30;;;;;;;;;;5062387;28;20067;-70
2022/02/22 06:48:57;;;;;;;8.75;1.95;;;;;;;;;;5035318;28;20023;-68
2022/02/22 06:51:23;;;;;;;20.73;2.28;;;;;;;;;;5043045;28;20024;-69
2022/02/22 06:53:49;;;;;;;15.93;2.70;;;;;;;;;;5037239;28;20081;-69
2022/02/22 06:56:15;;;;;;;12.50;2.05;;;;;;;;;;5059398;28;20543;-68
2022/02/22 06:58:42;;;;;;;15.77;2.25;;;;;;;;;;5062642;28;20099;-68
2022/02/22 07:01:08;;;;;;;9.15;2.00;;;;;;;;;;5057900;28;20029;-68
2022/02/22 07:03:34;;;;;;;15.95;2.40;;;;;;;;;;5066589;28;20028;-69
2022/02/22 07:06:01;;;;;;;14.65;2.67;;;;;;;;;;5066131;28;20042;-68
2022/02/22 07:08:27;;;;;;;19.38;2.85;;;;;;;;;;5063604;28;20024;-69
2022/02/22 07:10:53;;;;;;;12.23;2.70;;;;;;;;;;5061353;28;20028;-69
2022/02/22 07:13:19;;;;;;;9.98;2.67;;;;;;;;;;5064807;28;20036;-69
2022/02/22 07:15:45;;;;;;;17.23;3.30;;;;;;;;;;5063253;28;20028;-69
2022/02/22 07:18:11;;;;;;;12.70;2.67;;;;;;;;;;5063261;28;20025;-69
2022/02/22 07:20:37;;;;;;;11.82;2.33;;;;;;;;;;5065624;28;20132;-68
2022/02/22 07:23:03;;;;;;;15.40;3.22;;;;;;;;;;5062673;28;20373;-68
2022/02/22 07:25:30;;;;;;;17.55;2.72;;;;;;;;;;5057622;28;20067;-68
2022/02/22 07:27:57;;;;;;;15.43;3.85;;;;;;;;;;5060334;28;20040;-68
2022/02/22 07:30:24;;;;;;;15.65;3.60;;;;;;;;;;5063321;28;20102;-68
2022/02/22 07:32:51;;;;;;;11.98;3.22;;;;;;;;;;5065589;28;20040;-68
2022/02/22 07:35:17;;;;;;;19.55;3.25;;;;;;;;;;5052502;28;20092;-68
2022/02/22 07:37:44;;;;;;;19.65;3.20;;;;;;;;;;5052573;28;20091;-68
2022/02/22 07:40:11;;;;;;;15.00;3.38;;;;;;;;;;5052807;28;20021;-75
2022/02/22 07:42:37;;;;;;;12.32;3.40;;;;;;;;;;5055023;28;20099;-75
2022/02/22 07:45:04;;;;;;;13.68;3.05;;;;;;;;;;5052941;28;20033;-77
2022/02/22 07:47:30;;;;;;;15.52;3.00;;;;;;;;;;5052408;28;20627;-75
2022/02/22 07:49:58;;;;;;;10.60;3.10;;;;;;;;;;5053885;28;20032;-75
2022/02/22 07:52:24;;;;;;;14.40;3.40;;;;;;;;;;5055678;28;20527;-67
2022/02/22 07:54:50;;;;;;;11.45;3.08;;;;;;;;;;5052795;28;20107;-75
2022/02/22 07:57:16;;;;;;;13.65;3.45;;;;;;;;;;5052688;28;20112;-75
2022/02/22 07:59:42;;;;;;;7.68;2.78;;;;;;;;;;5035251;28;20021;-75
2022/02/22 08:02:08;;;;;;;12.13;2.83;;;;;;;;;;5052121;28;20461;-74
2022/02/22 08:04:35;;;;;;;15.23;3.33;;;;;;;;;;5054495;28;20100;-76
2022/02/22 08:07:01;;;;;;;13.52;3.25;;;;;;;;;;5055107;28;20036;-74
2022/02/22 08:09:27;;;;;;;10.68;2.95;;;;;;;;;;5039277;28;20500;-75
2022/02/22 08:11:54;;;;;;;13.60;3.33;;;;;;;;;;5037574;28;20433;-74
2022/02/22 08:14:20;;;;;;;10.82;3.30;;;;;;;;;;5056088;28;20021;-74
2022/02/22 08:16:47;;;;;;;12.93;3.28;;;;;;;;;;5056787;28;20036;-74
2022/02/22 08:19:14;;;;;;;14.30;3.10;;;;;;;;;;5073554;28;20025;-73
2022/02/22 08:21:40;;;;;;;13.65;3.60;;;;;;;;;;5076075;28;20089;-73
2022/02/22 08:24:06;;;;;;;14.07;3.47;;;;;;;;;;5076844;28;20033;-74
2022/02/22 08:26:32;;;;;;;15.25;3.53;;;;;;;;;;5058687;28;20074;-74
2022/02/22 08:28:58;;;;;;;9.82;2.65;;;;;;;;;;5076545;28;20032;-74
2022/02/22 08:31:25;;;;;;;13.40;3.08;;;;;;;;;;5068652;28;20397;-75
2022/02/22 08:33:58;;;;;;;17.85;3.88;;;;;;;;;;5067858;28;20028;-74
2022/02/22 08:36:24;;;;;;;14.93;3.30;;;;;;;;;;5076758;28;20467;-72
2022/02/22 08:38:51;;;;;;;12.65;3.33;;;;;;;;;;5075871;28;20540;-75
2022/02/22 08:41:18;;;;;;;15.05;3.60;;;;;;;;;;5076071;28;20028;-75
2022/02/22 08:43:44;;;;;;;14.48;3.83;;;;;;;;;;5076048;28;20771;-75
2022/02/22 08:46:10;;;;;;;13.02;3.30;;;;;;;;;;5076849;28;20031;-75
2022/02/22 08:48:36;;;;;;;14.15;3.22;;;;;;;;;;5059624;28;20024;-75
2022/02/22 08:51:02;;;;;;;13.85;3.85;;;;;;;;;;5059109;28;20048;-75
2022/02/22 08:53:28;;;;;;;12.85;3.45;;;;;;;;;;5057822;28;20498;-74
2022/02/22 08:55:54;;;;;;;13.43;3.60;;;;;;;;;;5057319;28;20027;-74
2022/02/22 08:58:20;;;;;;;18.23;3.88;;;;;;;;;;5067802;28;20423;-73
2022/02/22 09:00:46;;;;;;;13.75;3.13;;;;;;;;;;5056787;28;20020;-73
2022/02/22 09:03:15;;;;;;;15.65;3.67;;;;;;;;;;5072813;28;20036;-72
2022/02/22 09:05:41;;;;;;;12.85;3.22;;;;;;;;;;5065490;28;20051;-73
2022/02/22 09:08:07;;;;;;;13.05;3.05;;;;;;;;;;5063236;28;20020;-74
2022/02/22 09:10:34;;;;;;;10.65;2.78;;;;;;;;;;5069657;28;20032;-75
2022/02/22 09:13:00;;;;;;;11.77;3.47;;;;;;;;;;5056795;28;20051;-74
2022/02/22 09:15:28;;;;;;;15.10;3.47;;;;;;;;;;5072690;28;20042;-73
2022/02/22 09:17:54;;;;;;;19.30;4.15;;;;;;;;;;5066287;28;20376;-74
2022/02/22 09:20:22;;;;;;;15.80;3.65;;;;;;;;;;5037666;28;20472;-70
2022/02/22 09:22:48;;;;;;;13.50;3.33;;;;;;;;;;5070289;28;20033;-71
2022/02/22 09:25:16;;;;;;;13.25;3.40;;;;;;;;;;5061362;28;20032;-73
2022/02/22 09:27:44;;;;;;;14.43;3.83;;;;;;;;;;5059309;28;20051;-71
2022/02/22 09:30:11;;;;;;;17.85;4.05;;;;;;;;;;5066536;28;20017;-74
2022/02/22 09:32:37;;;;;;;14.05;3.65;;;;;;;;;;5072620;28;20482;-74
2022/02/22 09:35:03;;;;;;;13.27;3.30;;;;;;;;;;5068082;28;20031;-73
2022/02/22 09:37:29;;;;;;;20.90;3.97;;;;;;;;;;5075149;28;20029;-73
2022/02/22 09:39:55;;;;;;;13.98;3.03;;;;;;;;;;5075360;28;20024;-73
2022/02/22 09:42:21;;;;;;;10.15;2.75;;;;;;;;;;5071180;28;20033;-74
2022/02/22 09:44:47;;;;;;;12.00;3.33;;;;;;;;;;5039209;28;20040;-73
2022/02/22 09:47:13;;;;;;;10.95;2.95;;;;;;;;;;5054601;28;20075;-74
2022/02/22 09:49:39;;;;;;;10.52;3.35;;;;;;;;;;5063717;28;20028;-73
2022/02/22 09:52:05;;;;;;;12.50;3.50;;;;;;;;;;5072134;28;20017;-71
2022/02/22 09:54:33;;;;;;;15.65;4.30;;;;;;;;;;5080082;28;20021;-74
2022/02/22 09:56:59;;;;;;;11.75;3.33;;;;;;;;;;5074814;28;20032;-71
2022/02/22 09:59:25;;;;;;;17.65;4.03;;;;;;;;;;5074475;28;20027;-73
2022/02/22 10:01:53;;;;;;;16.38;3.70;;;;;;;;;;5073972;28;20121;-72
2022/02/22 10:04:19;;;;;;;12.10;3.35;;;;;;;;;;5056853;28;20032;-75
2022/02/22 10:06:45;;;;;;;21.15;3.92;;;;;;;;;;5071487;28;20024;-76
2022/02/22 10:09:11;;;;;;;16.80;4.28;;;;;;;;;;5054506;28;20025;-73
2022/02/22 10:11:53;;;;;;;36.83;4.28;;;;;;;;;;5054127;28;20075;-73
2022/02/22 10:14:24;;;;;;;28.20;4.20;;;;;;;;;;5036183;28;20383;-72
2022/02/22 10:16:50;;;;;;;15.50;3.85;;;;;;;;;;5036174;28;20025;-72
2022/02/22 10:19:17;;;;;;;16.75;4.00;;;;;;;;;;5036060;28;20035;-70
2022/02/22 10:21:44;;;;;;;14.43;4.20;;;;;;;;;;5053459;28;20131;-73
2022/02/22 10:24:11;;;;;;;17.48;3.45;;;;;;;;;;5054247;28;20033;-74
2022/02/22 10:26:37;;;;;;;21.48;4.25;;;;;;;;;;5036513;28;20464;-73
2022/02/22 10:29:16;;;;;;;13.13;3.55;;;;;;;;;;5053857;28;20025;-71
2022/02/22 10:31:45;;;;;;;11.75;3.83;;;;;;;;;;5056528;28;20031;-68
2022/02/22 10:34:11;;;;;;;17.30;3.78;;;;;;;;;;5059290;28;20108;-71
2022/02/22 10:36:40;;;;;;;23.55;3.63;;;;;;;;;;5054218;28;20028;-72
2022/02/22 10:39:10;;;;;;;12.65;3.40;;;;;;;;;;5053848;28;20025;-73
2022/02/22 10:41:46;;;;;;;14.98;3.63;;;;;;;;;;5053126;28;20032;-72
2022/02/22 10:44:22;;;;;;;17.23;3.72;;;;;;;;;;5052705;28;20029;-74
2022/02/22 10:46:49;;;;;;;11.27;2.83;;;;;;;;;;5059917;28;20527;-73
2022/02/22 10:49:18;;;;;;;15.65;3.65;;;;;;;;;;5073724;28;20383;-73
2022/02/22 10:51:44;;;;;;;14.88;3.42;;;;;;;;;;5055979;28;20029;-73
2022/02/22 10:54:16;;;;;;;12.68;3.25;;;;;;;;;;5073354;28;20021;-73
2022/02/22 10:56:42;;;;;;;16.30;3.83;;;;;;;;;;5073238;28;20522;-74
2022/02/22 10:59:08;;;;;;;14.00;3.85;;;;;;;;;;5074003;28;20096;-73
2022/02/22 11:01:34;;;;;;;10.30;3.40;;;;;;;;;;5072652;28;20148;-74
2022/02/22 11:04:01;;;;;;;12.60;3.30;;;;;;;;;;5062944;28;20112;-72
2022/02/22 11:06:27;;;;;;;10.82;3.17;;;;;;;;;;5069446;28;20032;-72
2022/02/22 11:08:57;;;;;;;15.48;3.80;;;;;;;;;;5044410;28;20045;-72
2022/02/22 11:11:37;;;;;;;12.48;3.33;;;;;;;;;;5061707;28;20033;-73
2022/02/22 11:14:09;;;;;;;12.88;3.60;;;;;;;;;;5059196;28;20052;-73
2022/02/22 11:16:43;;;;;;;18.13;3.22;;;;;;;;;;5041522;28;20017;-72
2022/02/22 11:19:14;;;;;;;13.88;3.78;;;;;;;;;;5060214;28;20020;-72
2022/02/22 11:21:40;;;;;;;15.52;3.40;;;;;;;;;;5040698;28;20052;-72
2022/02/22 11:24:09;;;;;;;13.77;3.17;;;;;;;;;;5073013;28;20028;-72
2022/02/22 11:26:50;;;;;;;16.02;4.28;;;;;;;;;;5060089;28;20010;-72
2022/02/22 11:29:16;;;;;;;12.10;3.30;;;;;;;;;;5042967;28;20054;-72
2022/02/22 11:31:55;;;;;;;10.80;3.13;;;;;;;;;;5061442;28;20025;-72
2022/02/22 11:34:28;;;;;;;13.18;3.40;;;;;;;;;;5044138;28;20530;-69
2022/02/22 11:36:57;;;;;;;13.23;3.45;;;;;;;;;;5064074;28;20139;-69
2022/02/22 11:39:23;;;;;;;16.38;3.80;;;;;;;;;;5070867;28;20477;-69
2022/02/22 11:41:49;;;;;;;26.80;3.97;;;;;;;;;;5070774;28;20036;-69
2022/02/22 11:44:17;;;;;;;15.30;3.65;;;;;;;;;;5051845;28;20111;-69
2022/02/22 11:46:54;;;;;;;16.65;3.58;;;;;;;;;;5056942;28;20016;-69
2022/02/22 11:49:28;;;;;;;13.20;3.47;;;;;;;;;;5071824;28;20024;-69
2022/02/22 11:51:56;;;;;;;10.32;3.00;;;;;;;;;;5066666;28;20040;-69
2022/02/22 11:54:26;;;;;;;14.15;3.83;;;;;;;;;;5069026;28;20012;-69
2022/02/22 11:57:21;;;;;;;12.65;3.17;;;;;;;;;;5075910;28;20063;-69
2022/02/22 11:59:54;;;;;;;15.15;3.65;;;;;;;;;;5055159;28;20438;-69
2022/02/22 12:02:30;;;;;;;10.90;3.28;;;;;;;;;;5075773;28;20474;-68
2022/02/22 12:04:57;;;;;;;10.75;3.20;;;;;;;;;;5075966;28;20033;-69
2022/02/22 12:07:30;;;;;;;13.32;3.38;;;;;;;;;;5075543;28;20078;-69
2022/02/22 12:09:57;;;;;;;11.88;2.72;;;;;;;;;;5075659;28;20021;-68
2022/02/22 12:12:23;;;;;;;11.88;3.30;;;;;;;;;;5057804;28;20460;-68
2022/02/22 12:14:53;;;;;;;10.02;3.30;;;;;;;;;;5073860;28;20027;-69
2022/02/22 12:17:19;;;;;;;10.93;2.95;;;;;;;;;;5055421;28;20403;-69
2022/02/22 12:19:49;;;;;;;13.45;3.10;;;;;;;;;;5055696;28;20017;-69
2022/02/22 12:22:16;;;;;;;6.53;2.50;;;;;;;;;;5054432;28;20056;-68
2022/02/22 12:24:42;;;;;;;8.77;2.50;;;;;;;;;;5063289;28;20021;-69
2022/02/22 12:27:12;;;;;;;11.30;2.75;;;;;;;;;;5055594;28;20112;-68
2022/02/22 12:29:38;;;;;;;9.65;2.60;;;;;;;;;;5037218;28;20028;-68
2022/02/22 12:32:05;;;;;;;10.68;2.60;;;;;;;;;;5055173;28;20464;-69
2022/02/22 12:34:31;;;;;;;8.98;2.40;;;;;;;;;;5055415;28;20024;-68
2022/02/22 12:36:59;;;;;;;6.20;2.42;;;;;;;;;;5037108;28;20033;-68
2022/02/22 12:39:26;;;;;;;10.68;2.40;;;;;;;;;;5067264;28;20028;-69
2022/02/22 12:41:55;;;;;;;7.05;2.63;;;;;;;;;;5065730;28;20040;-69
2022/02/22 12:44:22;;;;;;;12.68;2.60;;;;;;;;;;5055138;28;20025;-69
2022/02/22 12:46:49;;;;;;;9.73;2.33;;;;;;;;;;5060592;28;20098;-68
2022/02/22 12:49:17;;;;;;;7.95;2.13;;;;;;;;;;5074350;28;20146;-69
2022/02/22 12:51:43;;;;;;;8.05;2.80;;;;;;;;;;5074436;28;20522;-69
2022/02/22 12:54:10;;;;;;;10.95;2.25;;;;;;;;;;5074420;28;20506;-69
2022/02/22 12:56:46;;;;;;;8.77;2.30;;;;;;;;;;5074630;28;20158;-69
2022/02/22 12:59:19;;;;;;;7.63;2.47;;;;;;;;;;5074348;28;20024;-68
2022/02/22 13:01:45;;;;;;;8.75;2.40;;;;;;;;;;5073665;28;20400;-69
2022/02/22 13:04:15;;;;;;;8.90;2.95;;;;;;;;;;5056263;28;20025;-69
2022/02/22 13:06:45;;;;;;;15.68;3.25;;;;;;;;;;5071193;28;20028;-69
2022/02/22 13:09:12;;;;;;;11.38;2.92;;;;;;;;;;5060381;28;20024;-68
2022/02/22 13:11:38;;;;;;;11.98;3.03;;;;;;;;;;5054225;28;20025;-69
2022/02/22 13:14:06;;;;;;;12.43;3.00;;;;;;;;;;5036290;28;20021;-69
2022/02/22 13:16:32;;;;;;;12.25;2.70;;;;;;;;;;5036219;28;20024;-68
2022/02/22 13:19:02;;;;;;;16.23;3.28;;;;;;;;;;5036296;28;20059;-68
2022/02/22 13:21:28;;;;;;;13.77;3.15;;;;;;;;;;5053397;28;20045;-68
2022/02/22 13:23:58;;;;;;;16.42;3.50;;;;;;;;;;5064528;28;20436;-69
2022/02/22 13:26:24;;;;;;;10.95;2.58;;;;;;;;;;5055759;28;20016;-69
2022/02/22 13:28:50;;;;;;;15.43;3.17;;;;;;;;;;5073396;28;20067;-69
2022/02/22 13:31:18;;;;;;;14.70;3.13;;;;;;;;;;5073631;28;20498;-68
2022/02/22 13:33:44;;;;;;;14.82;3.20;;;;;;;;;;5081125;28;20035;-69
2022/02/22 13:36:15;;;;;;;12.95;3.53;;;;;;;;;;5088147;28;20016;-68
2022/02/22 13:38:44;;;;;;;14.85;3.15;;;;;;;;;;5077134;28;20104;-69
2022/02/22 13:41:15;;;;;;;13.10;3.00;;;;;;;;;;5066922;28;20021;-69
2022/02/22 13:43:41;;;;;;;14.65;3.47;;;;;;;;;;5073682;28;20113;-68
2022/02/22 13:46:08;;;;;;;25.40;4.07;;;;;;;;;;5073564;28;20067;-69
2022/02/22 13:48:34;;;;;;;22.00;4.05;;;;;;;;;;5073976;28;20039;-69
2022/02/22 13:51:07;;;;;;;14.85;3.50;;;;;;;;;;5073472;28;20013;-68
2022/02/22 13:53:33;;;;;;;18.30;4.10;;;;;;;;;;5074010;28;20031;-69
2022/02/22 13:56:02;;;;;;;22.02;3.92;;;;;;;;;;5068367;28;20116;-69
2022/02/22 13:58:29;;;;;;;23.45;4.25;;;;;;;;;;5035698;28;20476;-68
2022/02/22 14:00:59;;;;;;;18.27;4.20;;;;;;;;;;5053226;28;20112;-68
2022/02/22 14:03:25;;;;;;;19.42;3.85;;;;;;;;;;5053169;28;20040;-69
2022/02/22 14:05:51;;;;;;;20.08;4.03;;;;;;;;;;5054307;28;20032;-68
2022/02/22 14:08:18;;;;;;;22.55;4.47;;;;;;;;;;5054458;28;20023;-76
2022/02/22 14:10:47;;;;;;;20.73;4.25;;;;;;;;;;5055358;28;20025;-69
2022/02/22 14:13:14;;;;;;;25.13;4.60;;;;;;;;;;5071588;28;20044;-76
2022/02/22 14:15:41;;;;;;;24.90;5.25;;;;;;;;;;5071221;28;20028;-71
2022/02/22 14:18:07;;;;;;;20.92;4.53;;;;;;;;;;5052912;28;20064;-73
2022/02/22 14:20:34;;;;;;;24.10;5.55;;;;;;;;;;5069302;28;20059;-74
2022/02/22 14:26:09;;;;;;;21.48;4.85;;;;;;;;;;5053112;28;20097;-72
2022/02/22 14:28:35;;;;;;;22.55;4.47;;;;;;;;;;5040336;28;20067;-65
2022/02/22 14:31:01;;;;;;;19.58;4.72;;;;;;;;;;5043920;28;20414;-65
2022/02/22 14:33:27;;;;;;;23.75;4.82;;;;;;;;;;5057866;28;20035;-64
2022/02/22 14:35:53;;;;;;;30.65;5.43;;;;;;;;;;5061647;28;20051;-66